Buoy 32622

sailwx.info

Track history (hours):
 
Tides and Currents Weather Stations Pressure Air Temp Water Temp Dewpoint Dewpoint Depression Visibility Wind Speed Wind Dir Waves Ship Positions

Aadnyj

Last reported at 2014-Dec-23 03:15 UTC. Time now 2014-Dec-23 03:44 UTC.
Position S 19°47' W 166°26'.

Length 56 m.

Type: Towing. MMSI: 413600286.

Water temperature 26.9 ° C

Date/timePositionNaut miles runAvg speedWind from/ knotsBaromVisibWave heightAir tempDewpointWater temp
2014-Dec-23 03:15S 19°47' W 166°26'2 9.5 26.9
2014-Dec-23 03:03S 19°46' W 166°24'3 1.0 26.9
2014-Dec-22 23:49S 19°45' W 166°21'0 0.0 26.9
2014-Dec-22 21:06S 19°45' W 166°21'0 0.0 26.9
2014-Dec-22 21:00S 19°45' W 166°21'0 0.4 26.9
2014-Dec-22 20:16S 19°45' W 166°21'0 0.0 26.9
2014-Dec-22 20:15S 19°45' W 166°21'1 0.9 26.9
2014-Dec-22 19:22S 19°44' W 166°20'1 1.1 26.9
2014-Dec-22 18:16S 19°44' W 166°19'1 2.0 26.9
2014-Dec-22 17:57S 19°45' W 166°19'1 1.1 26.9
2014-Dec-22 16:41S 19°44' W 166°17'0 0.0 26.9
2014-Dec-22 16:24S 19°44' W 166°17'1 5.0 26.8
2014-Dec-22 16:16S 19°44' W 166°17'1 0.5 26.8
2014-Dec-22 14:42S 19°44' W 166°16'2 0.9 26.9
2014-Dec-22 12:59S 19°44' W 166°14'0 0.0 26.9
2014-Dec-22 12:55S 19°44' W 166°14'0 0.0 26.9
2014-Dec-22 12:47S 19°44' W 166°14'0 0.2 26.9
2014-Dec-22 11:16S 19°44' W 166°14'2 1.1 26.8
2014-Dec-22 09:43S 19°43' W 166°13'0 0.0
2014-Dec-22 09:08S 19°43' W 166°13'0 0.0 26.8
2014-Dec-22 09:04S 19°43' W 166°13'1 1.0 26.8
2014-Dec-22 08:14S 19°43' W 166°12'1 1.6 26.8
2014-Dec-22 07:26S 19°42' W 166°11'0 0.0 26.8
2014-Dec-22 05:58S 19°42' W 166°11'3 1.8 26.8
2014-Dec-22 04:15S 19°40' W 166°09'1 1.2 26.8
2014-Dec-22 03:27S 19°40' W 166°08'210.9 26.8
2014-Dec-22 03:15S 19°39' W 166°06'2 0.5
2014-Dec-22 00:01S 19°39' W 166°04'1 0.5 26.8
2014-Dec-21 21:25S 19°39' W 166°03'1 1.9 26.8
2014-Dec-21 20:38S 19°39' W 166°01'0 0.0 26.8
2014-Dec-21 20:35S 19°39' W 166°01'0 0.2 26.8
2014-Dec-21 19:47S 19°39' W 166°01'0 3.5 26.8
2014-Dec-21 19:42S 19°39' W 166°01'1 1.3 26.8
2014-Dec-21 18:54S 19°39' W 166°00'110.5 26.8
2014-Dec-21 18:50S 19°39' W 166°01'1 0.4 26.8
2014-Dec-21 17:12S 19°39' W 166°00'2 1.3 26.8
2014-Dec-21 15:28S 19°38' W 165°58'0 0.0 26.8
2014-Dec-21 15:02S 19°38' W 165°58'0 0.0 26.8
2014-Dec-21 14:56S 19°38' W 165°58'0 3.8 26.8
2014-Dec-21 14:53S 19°38' W 165°58'1 6.5 26.8
2014-Dec-21 14:43S 19°38' W 165°57'0 0.0 26.8
2014-Dec-21 13:10S 19°38' W 165°57'0 1.7 26.8
2014-Dec-21 13:06S 19°38' W 165°57'1 6.5 26.8
2014-Dec-21 12:58S 19°38' W 165°56'0 0.1 26.8
2014-Dec-21 11:26S 19°39' W 165°56'1 0.6 26.9
2014-Dec-21 09:29S 19°38' W 165°55'0 0.4 26.9
2014-Dec-21 08:34S 19°38' W 165°55'0 0.3 26.9
2014-Dec-21 07:46S 19°38' W 165°54'1 0.6 26.9
2014-Dec-21 06:27S 19°37' W 165°54'0 0.2 26.9
2014-Dec-21 05:16S 19°37' W 165°54'0 0.9 26.9
2014-Dec-21 04:51S 19°37' W 165°54'0 0.0 26.9
2014-Dec-21 04:47S 19°37' W 165°54'1 0.7 26.9
2014-Dec-21 03:57S 19°37' W 165°54'0 0.0 27.0
2014-Dec-21 03:55S 19°37' W 165°54'1 2.2 26.9
2014-Dec-21 03:41S 19°37' W 165°54'0 1.1 27.0
2014-Dec-21 03:38S 19°37' W 165°54'1 1.8 27.0
2014-Dec-21 03:07S 19°36' W 165°53'0 0.0 27.0
2014-Dec-21 01:56S 19°36' W 165°53'0 2.6 27.0
2014-Dec-21 01:50S 19°36' W 165°53'2 1.3 27.0
2014-Dec-21 00:14S 19°34' W 165°52'3 1.0 27.0
2014-Dec-20 21:00S 19°33' W 165°49'1 4.5 26.9
2014-Dec-20 20:52S 19°32' W 165°49'0 0.4 26.9
2014-Dec-20 20:07S 19°32' W 165°49'0 4.3 26.9
2014-Dec-20 20:03S 19°32' W 165°49'1 3.9 26.9
2014-Dec-20 19:55S 19°32' W 165°48'0 0.2 26.9
2014-Dec-20 19:16S 19°32' W 165°48'1 1.5 26.9
2014-Dec-20 18:22S 19°32' W 165°47'0 0.1 26.9
2014-Dec-20 17:45S 19°32' W 165°47'0 1.4 26.9
2014-Dec-20 17:40S 19°31' W 165°47'0 0.4 26.9
2014-Dec-20 17:09S 19°32' W 165°47'1 2.7 26.9
2014-Dec-20 16:46S 19°31' W 165°46'0 0.0 26.9
2014-Dec-20 16:04S 19°31' W 165°46'0 0.8 26.9
2014-Dec-20 15:28S 19°31' W 165°45'0 0.0 26.9
2014-Dec-20 15:07S 19°31' W 165°45'0 3.6 26.9
2014-Dec-20 15:03S 19°31' W 165°45'1 0.7 26.9
2014-Dec-20 13:15S 19°31' W 165°44'112.1 26.9
2014-Dec-20 13:09S 19°30' W 165°43'0 0.0 26.9
2014-Dec-20 11:39S 19°30' W 165°43'2 1.9 26.9
2014-Dec-20 10:29S 19°30' W 165°41'0 0.0 26.9
2014-Dec-20 09:47S 19°30' W 165°41'0 0.0 26.9
2014-Dec-20 09:40S 19°30' W 165°41'0 0.0 26.9
2014-Dec-20 08:58S 19°30' W 165°41'0 1.0 26.9
2014-Dec-20 08:53S 19°30' W 165°41'0 0.5 26.9
2014-Dec-20 08:08S 19°30' W 165°41'1 0.7 26.9
2014-Dec-20 07:14S 19°30' W 165°40'1 0.5 26.9
2014-Dec-20 05:28S 19°30' W 165°39'0 0.0 26.9
2014-Dec-20 05:16S 19°30' W 165°39'1 1.0 26.9
2014-Dec-20 04:16S 19°31' W 165°38'0 0.5 26.9
2014-Dec-20 03:49S 19°31' W 165°38'0 4.7 26.9
2014-Dec-20 03:46S 19°31' W 165°38'0 4.8
2014-Dec-20 03:40S 19°30' W 165°38'1 0.5 26.9
2014-Dec-20 02:07S 19°30' W 165°37'1 5.2 26.9
2014-Dec-20 02:01S 19°31' W 165°38'0 0.3 27.0
2014-Dec-20 00:25S 19°30' W 165°37'1 0.4 26.9
2014-Dec-19 22:04S 19°30' W 165°38'1 0.9 26.9
2014-Dec-19 21:20S 19°29' W 165°38'1 0.6 26.9
2014-Dec-19 20:24S 19°29' W 165°37'0 0.0 26.9
2014-Dec-19 19:38S 19°29' W 165°37'1 1.5 26.9
2014-Dec-19 18:44S 19°30' W 165°37'2 4.0 26.9
2014-Dec-19 18:16S 19°28' W 165°37'1 0.9 26.9
2014-Dec-19 16:57S 19°28' W 165°36'0 0.1 26.8
2014-Dec-19 16:30S 19°28' W 165°36'1 1.1 26.8
2014-Dec-19 15:50S 19°27' W 165°35'0 0.5 26.8
2014-Dec-19 15:16S 19°27' W 165°35'0 0.0 26.8
2014-Dec-19 15:14S 19°27' W 165°35'213.2 26.8
2014-Dec-19 15:07S 19°26' W 165°34'2 1.5 26.8
2014-Dec-19 13:34S 19°24' W 165°32'0 0.0 26.8
2014-Dec-19 11:50S 19°24' W 165°32'0 0.0 26.8
2014-Dec-19 10:07S 19°24' W 165°32'1 8.1 26.8
2014-Dec-19 10:00S 19°24' W 165°31'0 0.0 26.8
2014-Dec-19 09:15S 19°24' W 165°31'117.6 26.8
2014-Dec-19 09:12S 19°24' W 165°30'1 0.8 26.8
2014-Dec-19 08:30S 19°24' W 165°30'0 9.9 26.8
2014-Dec-19 08:27S 19°24' W 165°30'1 1.0 26.8
2014-Dec-19 07:36S 19°23' W 165°30'1 0.7 26.8
2014-Dec-19 05:52S 19°23' W 165°29'1 1.3 26.8
2014-Dec-19 04:47S 19°22' W 165°27'0 0.4 26.8
2014-Dec-19 04:14S 19°22' W 165°27'0 0.0 26.8
2014-Dec-19 04:11S 19°22' W 165°27'0 1.2 26.8
2014-Dec-19 03:57S 19°22' W 165°27'1 1.4 26.8
2014-Dec-19 03:01S 19°22' W 165°26'2 2.3 26.9
2014-Dec-19 02:16S 19°21' W 165°24'126.2 26.9
2014-Dec-19 02:13S 19°22' W 165°26'1 0.8 26.9
2014-Dec-19 00:37S 19°21' W 165°24'0 4.9 26.9
2014-Dec-19 00:36S 19°21' W 165°24'1 0.5 26.9
2014-Dec-18 21:40S 19°21' W 165°23'1 0.8 26.8
2014-Dec-18 20:46S 19°21' W 165°22'0 7.7 26.8
2014-Dec-18 20:43S 19°21' W 165°22'0 0.0 26.8
2014-Dec-18 20:00S 19°21' W 165°22'1 0.9 26.8
2014-Dec-18 19:07S 19°21' W 165°21'0 5.3 26.8
2014-Dec-18 19:04S 19°22' W 165°21'0 0.5 26.8
2014-Dec-18 18:45S 19°22' W 165°21'1 0.6 26.8
2014-Dec-18 17:06S 19°22' W 165°20'1 0.6 26.8
2014-Dec-18 15:30S 19°22' W 165°19'0 0.0 26.8
2014-Dec-18 14:36S 19°22' W 165°19'1 1.0 26.8
2014-Dec-18 13:46S 19°21' W 165°19'0 1.5 26.8
2014-Dec-18 13:31S 19°21' W 165°18'0 0.0
2014-Dec-18 12:01S 19°21' W 165°18'0 0.2 26.8
2014-Dec-18 09:38S 19°21' W 165°18'0 2.8 26.8
2014-Dec-18 09:29S 19°21' W 165°18'0 0.0 26.8
2014-Dec-18 08:52S 19°21' W 165°18'1 8.5 26.8
2014-Dec-18 08:47S 19°21' W 165°17'0 0.0 26.8
2014-Dec-18 07:57S 19°21' W 165°17'1 0.3 26.8
2014-Dec-18 06:21S 19°20' W 165°17'1 1.8 26.8
2014-Dec-18 05:49S 19°19' W 165°16'0 0.0 26.8
2014-Dec-18 04:45S 19°19' W 165°16'0 0.0 26.9
2014-Dec-18 04:42S 19°19' W 165°16'0 0.8 26.9
2014-Dec-18 04:11S 19°19' W 165°16'1 0.8 26.9
2014-Dec-18 03:29S 19°19' W 165°16'1 2.3 26.9
2014-Dec-18 03:00S 19°18' W 165°15'0 0.5 26.9
2014-Dec-18 02:30S 19°18' W 165°15'0 0.0 26.9
2014-Dec-18 02:24S 19°18' W 165°15'1 0.4 26.9
2014-Dec-18 00:46S 19°18' W 165°14'3 1.0 26.9
2014-Dec-17 21:59S 19°16' W 165°12'1 1.7 26.8
2014-Dec-17 21:09S 19°17' W 165°11'1 8.4 26.7
2014-Dec-17 20:59S 19°16' W 165°12'0 0.1 26.7
2014-Dec-17 20:15S 19°16' W 165°12'2 2.6 26.7
2014-Dec-17 19:29S 19°16' W 165°10'0 0.0 26.7
2014-Dec-17 19:26S 19°16' W 165°10'0 0.0 26.7
2014-Dec-17 19:12S 19°16' W 165°10'1 0.4 26.7
2014-Dec-17 17:40S 19°16' W 165°10'0 0.0 26.7
2014-Dec-17 17:36S 19°16' W 165°10'2 0.9 26.7
2014-Dec-17 15:58S 19°16' W 165°08'0 0.8 26.7
2014-Dec-17 15:36S 19°16' W 165°08'1 5.5 26.7
2014-Dec-17 15:28S 19°15' W 165°08'0 0.0 26.7
2014-Dec-17 15:01S 19°15' W 165°08'1 0.7 26.7
2014-Dec-17 13:57S 19°15' W 165°07'0 0.0 26.7
2014-Dec-17 13:54S 19°15' W 165°07'1 0.7 26.7
2014-Dec-17 12:12S 19°15' W 165°06'211.3 26.7
2014-Dec-17 12:01S 19°14' W 165°04'1 0.3
2014-Dec-17 09:10S 19°15' W 165°03'111.6 26.7
2014-Dec-17 09:07S 19°15' W 165°02'0 0.0 26.7
2014-Dec-17 08:16S 19°15' W 165°02'1 0.7 26.7
2014-Dec-17 07:29S 19°15' W 165°02'1 0.6 26.7
2014-Dec-17 05:16S 19°15' W 165°00'0 1.9 26.7
2014-Dec-17 05:12S 19°15' W 165°00'1 0.7 26.7
2014-Dec-17 04:20S 19°15' W 164°60'0 0.2 26.7
2014-Dec-17 03:57S 19°15' W 164°60'0 1.0 26.7
2014-Dec-17 03:52S 19°15' W 164°60'0 1.0 26.7
2014-Dec-17 03:34S 19°15' W 164°60'0 0.6 26.7
2014-Dec-17 02:44S 19°15' W 164°59'0 2.7 26.7
2014-Dec-17 02:35S 19°15' W 164°59'1 0.3 26.7
2014-Dec-17 00:57S 19°15' W 164°59'1 0.3 26.7
2014-Dec-16 21:30S 19°14' W 164°58'1 1.1 26.7
2014-Dec-16 20:35S 19°14' W 164°57'0 0.0 26.8
2014-Dec-16 19:46S 19°14' W 164°57'1 1.2 26.7
2014-Dec-16 18:59S 19°14' W 164°56'0 0.0 26.7
2014-Dec-16 18:10S 19°14' W 164°56'15 0.8 26.7
2014-Dec-15 23:26S 19°10' W 164°41'1 0.3 27.0
2014-Dec-15 21:48S 19°10' W 164°42'1 0.8 26.9
2014-Dec-15 21:03S 19°10' W 164°41'1 0.7 26.9
2014-Dec-15 20:11S 19°09' W 164°41'0 0.0 26.9
2014-Dec-15 20:06S 19°09' W 164°41'1 0.7 26.9
2014-Dec-15 19:15S 19°09' W 164°41'0 0.0 26.9
2014-Dec-15 18:39S 19°09' W 164°41'0 0.0 26.9
2014-Dec-15 18:27S 19°09' W 164°41'0 0.0 26.9
2014-Dec-15 17:03S 19°09' W 164°41'0 0.0 26.9
2014-Dec-15 17:00S 19°09' W 164°41'1 0.9 26.9
2014-Dec-15 16:04S 19°08' W 164°40'1 4.3 26.9
2014-Dec-15 15:56S 19°08' W 164°41'0 0.0 26.9
2014-Dec-15 15:49S 19°08' W 164°41'2 1.2 26.9
2014-Dec-15 14:16S 19°08' W 164°39'1 0.6 26.9
2014-Dec-15 12:30S 19°08' W 164°38'218.0 26.9
2014-Dec-15 12:24S 19°07' W 164°36'0 0.0 26.9
2014-Dec-15 10:48S 19°07' W 164°36'0 0.0 26.9
2014-Dec-15 10:36S 19°07' W 164°36'0 0.0 26.9
2014-Dec-15 09:51S 19°07' W 164°36'1 4.9 26.9
2014-Dec-15 09:44S 19°07' W 164°35'0 0.0 26.9
2014-Dec-15 09:01S 19°07' W 164°35'0 0.0 26.9
2014-Dec-15 08:55S 19°07' W 164°35'1 0.8 26.9
2014-Dec-15 08:11S 19°07' W 164°35'1 1.4 26.9
2014-Dec-15 07:16S 19°07' W 164°34'1 0.6 26.9
2014-Dec-15 06:15S 19°07' W 164°33'2 1.2 27.0
2014-Dec-15 04:47S 19°07' W 164°31'1 4.3 27.0
2014-Dec-15 04:39S 19°07' W 164°32'0 0.0 27.0
2014-Dec-15 04:36S 19°07' W 164°32'3 2.0 27.0
2014-Dec-15 03:09S 19°06' W 164°29'1 8.5 27.0
2014-Dec-15 03:05S 19°06' W 164°29'0 0.0 27.0
2014-Dec-15 02:58S 19°06' W 164°29'1 0.3 27.0
2014-Dec-15 01:16S 19°06' W 164°29'2 1.4 27.0
2014-Dec-14 23:37S 19°05' W 164°26'0 0.0 27.0
2014-Dec-14 22:07S 19°05' W 164°26'0 0.0 27.0
2014-Dec-14 21:22S 19°05' W 164°26'1 8.5 26.9
2014-Dec-14 21:14S 19°05' W 164°25'0 0.0 26.9
2014-Dec-14 20:28S 19°05' W 164°25'1 1.1 26.9
2014-Dec-14 19:41S 19°05' W 164°25'2 4.1 26.9
2014-Dec-14 19:07S 19°04' W 164°22'0 0.0 26.9
2014-Dec-14 18:45S 19°04' W 164°22'0 0.0 26.9
2014-Dec-14 17:29S 19°04' W 164°22'1 0.9 26.9
2014-Dec-14 16:15S 19°04' W 164°21'0 0.0 26.9
2014-Dec-14 15:52S 19°04' W 164°21'1 0.8 26.9
2014-Dec-14 14:30S 19°04' W 164°20'2 1.0 26.9
2014-Dec-14 12:46S 19°04' W 164°18'0 0.0
2014-Dec-14 12:44S 19°04' W 164°18'1 5.5 27.0
2014-Dec-14 12:35S 19°05' W 164°17'0 0.0 27.0
2014-Dec-14 11:04S 19°05' W 164°17'1 1.4 27.0
2014-Dec-14 10:09S 19°04' W 164°17'0 0.0 27.0
2014-Dec-14 09:15S 19°04' W 164°17'0 0.0 27.0
2014-Dec-14 08:30S 19°04' W 164°17'1 1.0 27.1
2014-Dec-14 07:40S 19°03' W 164°16'2 0.8 27.1
2014-Dec-14 05:09S 19°02' W 164°14'0 0.0 27.2
2014-Dec-14 05:05S 19°02' W 164°14'1 0.8 27.2
2014-Dec-14 03:28S 19°01' W 164°14'1 2.8 27.2
2014-Dec-14 03:15S 19°01' W 164°14'0 0.0 27.2
2014-Dec-14 03:08S 19°01' W 164°14'2 1.4 27.2
2014-Dec-14 01:28S 19°00' W 164°12'1 0.6 27.2
2014-Dec-13 23:46S 19°00' W 164°11'   27.3
Track history (hours):
 
Tides and Currents Weather Stations Pressure Air Temp Water Temp Dewpoint Dewpoint Depression Visibility Wind Speed Wind Dir Waves Ship Positions

Aadnyj

Last reported at 2014-Dec-23 03:15 UTC. Time now 2014-Dec-23 03:44 UTC.
Position S 19°47' W 166°26'.

Length 56 m.

Type: Towing. MMSI: 413600286.

Water temperature 26.9 ° C

Date/timePositionNaut miles runAvg speedWind from/ knotsBaromVisibWave heightAir tempDewpointWater temp
2014-Dec-23 03:15S 19°47' W 166°26'2 9.5 26.9
2014-Dec-23 03:03S 19°46' W 166°24'3 1.0 26.9
2014-Dec-22 23:49S 19°45' W 166°21'0 0.0 26.9
2014-Dec-22 21:06S 19°45' W 166°21'0 0.0 26.9
2014-Dec-22 21:00S 19°45' W 166°21'0 0.4 26.9
2014-Dec-22 20:16S 19°45' W 166°21'0 0.0 26.9
2014-Dec-22 20:15S 19°45' W 166°21'1 0.9 26.9
2014-Dec-22 19:22S 19°44' W 166°20'1 1.1 26.9
2014-Dec-22 18:16S 19°44' W 166°19'1 2.0 26.9
2014-Dec-22 17:57S 19°45' W 166°19'1 1.1 26.9
2014-Dec-22 16:41S 19°44' W 166°17'0 0.0 26.9
2014-Dec-22 16:24S 19°44' W 166°17'1 5.0 26.8
2014-Dec-22 16:16S 19°44' W 166°17'1 0.5 26.8
2014-Dec-22 14:42S 19°44' W 166°16'2 0.9 26.9
2014-Dec-22 12:59S 19°44' W 166°14'0 0.0 26.9
2014-Dec-22 12:55S 19°44' W 166°14'0 0.0 26.9
2014-Dec-22 12:47S 19°44' W 166°14'0 0.2 26.9
2014-Dec-22 11:16S 19°44' W 166°14'2 1.1 26.8
2014-Dec-22 09:43S 19°43' W 166°13'0 0.0
2014-Dec-22 09:08S 19°43' W 166°13'0 0.0 26.8
2014-Dec-22 09:04S 19°43' W 166°13'1 1.0 26.8
2014-Dec-22 08:14S 19°43' W 166°12'1 1.6 26.8
2014-Dec-22 07:26S 19°42' W 166°11'0 0.0 26.8
2014-Dec-22 05:58S 19°42' W 166°11'3 1.8 26.8
2014-Dec-22 04:15S 19°40' W 166°09'1 1.2 26.8
2014-Dec-22 03:27S 19°40' W 166°08'210.9 26.8
2014-Dec-22 03:15S 19°39' W 166°06'2 0.5
2014-Dec-22 00:01S 19°39' W 166°04'1 0.5 26.8
2014-Dec-21 21:25S 19°39' W 166°03'1 1.9 26.8
2014-Dec-21 20:38S 19°39' W 166°01'0 0.0 26.8
2014-Dec-21 20:35S 19°39' W 166°01'0 0.2 26.8
2014-Dec-21 19:47S 19°39' W 166°01'0 3.5 26.8
2014-Dec-21 19:42S 19°39' W 166°01'1 1.3 26.8
2014-Dec-21 18:54S 19°39' W 166°00'110.5 26.8
2014-Dec-21 18:50S 19°39' W 166°01'1 0.4 26.8
2014-Dec-21 17:12S 19°39' W 166°00'2 1.3 26.8
2014-Dec-21 15:28S 19°38' W 165°58'0 0.0 26.8
2014-Dec-21 15:02S 19°38' W 165°58'0 0.0 26.8
2014-Dec-21 14:56S 19°38' W 165°58'0 3.8 26.8
2014-Dec-21 14:53S 19°38' W 165°58'1 6.5 26.8
2014-Dec-21 14:43S 19°38' W 165°57'0 0.0 26.8
2014-Dec-21 13:10S 19°38' W 165°57'0 1.7 26.8
2014-Dec-21 13:06S 19°38' W 165°57'1 6.5 26.8
2014-Dec-21 12:58S 19°38' W 165°56'0 0.1 26.8
2014-Dec-21 11:26S 19°39' W 165°56'1 0.6 26.9
2014-Dec-21 09:29S 19°38' W 165°55'0 0.4 26.9
2014-Dec-21 08:34S 19°38' W 165°55'0 0.3 26.9
2014-Dec-21 07:46S 19°38' W 165°54'1 0.6 26.9
2014-Dec-21 06:27S 19°37' W 165°54'0 0.2 26.9
2014-Dec-21 05:16S 19°37' W 165°54'0 0.9 26.9
2014-Dec-21 04:51S 19°37' W 165°54'0 0.0 26.9
2014-Dec-21 04:47S 19°37' W 165°54'1 0.7 26.9
2014-Dec-21 03:57S 19°37' W 165°54'0 0.0 27.0
2014-Dec-21 03:55S 19°37' W 165°54'1 2.2 26.9
2014-Dec-21 03:41S 19°37' W 165°54'0 1.1 27.0
2014-Dec-21 03:38S 19°37' W 165°54'1 1.8 27.0
2014-Dec-21 03:07S 19°36' W 165°53'0 0.0 27.0
2014-Dec-21 01:56S 19°36' W 165°53'0 2.6 27.0
2014-Dec-21 01:50S 19°36' W 165°53'2 1.3 27.0
2014-Dec-21 00:14S 19°34' W 165°52'3 1.0 27.0
2014-Dec-20 21:00S 19°33' W 165°49'1 4.5 26.9
2014-Dec-20 20:52S 19°32' W 165°49'0 0.4 26.9
2014-Dec-20 20:07S 19°32' W 165°49'0 4.3 26.9
2014-Dec-20 20:03S 19°32' W 165°49'1 3.9 26.9
2014-Dec-20 19:55S 19°32' W 165°48'0 0.2 26.9
2014-Dec-20 19:16S 19°32' W 165°48'1 1.5 26.9
2014-Dec-20 18:22S 19°32' W 165°47'0 0.1 26.9
2014-Dec-20 17:45S 19°32' W 165°47'0 1.4 26.9
2014-Dec-20 17:40S 19°31' W 165°47'0 0.4 26.9
2014-Dec-20 17:09S 19°32' W 165°47'1 2.7 26.9
2014-Dec-20 16:46S 19°31' W 165°46'0 0.0 26.9
2014-Dec-20 16:04S 19°31' W 165°46'0 0.8 26.9
2014-Dec-20 15:28S 19°31' W 165°45'0 0.0 26.9
2014-Dec-20 15:07S 19°31' W 165°45'0 3.6 26.9
2014-Dec-20 15:03S 19°31' W 165°45'1 0.7 26.9
2014-Dec-20 13:15S 19°31' W 165°44'112.1 26.9
2014-Dec-20 13:09S 19°30' W 165°43'0 0.0 26.9
2014-Dec-20 11:39S 19°30' W 165°43'2 1.9 26.9
2014-Dec-20 10:29S 19°30' W 165°41'0 0.0 26.9
2014-Dec-20 09:47S 19°30' W 165°41'0 0.0 26.9
2014-Dec-20 09:40S 19°30' W 165°41'0 0.0 26.9
2014-Dec-20 08:58S 19°30' W 165°41'0 1.0 26.9
2014-Dec-20 08:53S 19°30' W 165°41'0 0.5 26.9
2014-Dec-20 08:08S 19°30' W 165°41'1 0.7 26.9
2014-Dec-20 07:14S 19°30' W 165°40'1 0.5 26.9
2014-Dec-20 05:28S 19°30' W 165°39'0 0.0 26.9
2014-Dec-20 05:16S 19°30' W 165°39'1 1.0 26.9
2014-Dec-20 04:16S 19°31' W 165°38'0 0.5 26.9
2014-Dec-20 03:49S 19°31' W 165°38'0 4.7 26.9
2014-Dec-20 03:46S 19°31' W 165°38'0 4.8
2014-Dec-20 03:40S 19°30' W 165°38'1 0.5 26.9
2014-Dec-20 02:07S 19°30' W 165°37'1 5.2 26.9
2014-Dec-20 02:01S 19°31' W 165°38'0 0.3 27.0
2014-Dec-20 00:25S 19°30' W 165°37'1 0.4 26.9
2014-Dec-19 22:04S 19°30' W 165°38'1 0.9 26.9
2014-Dec-19 21:20S 19°29' W 165°38'1 0.6 26.9
2014-Dec-19 20:24S 19°29' W 165°37'0 0.0 26.9
2014-Dec-19 19:38S 19°29' W 165°37'1 1.5 26.9
2014-Dec-19 18:44S 19°30' W 165°37'2 4.0 26.9
2014-Dec-19 18:16S 19°28' W 165°37'1 0.9 26.9
2014-Dec-19 16:57S 19°28' W 165°36'0 0.1 26.8
2014-Dec-19 16:30S 19°28' W 165°36'1 1.1 26.8
2014-Dec-19 15:50S 19°27' W 165°35'0 0.5 26.8
2014-Dec-19 15:16S 19°27' W 165°35'0 0.0 26.8
2014-Dec-19 15:14S 19°27' W 165°35'213.2 26.8
2014-Dec-19 15:07S 19°26' W 165°34'2 1.5 26.8
2014-Dec-19 13:34S 19°24' W 165°32'0 0.0 26.8
2014-Dec-19 11:50S 19°24' W 165°32'0 0.0 26.8
2014-Dec-19 10:07S 19°24' W 165°32'1 8.1 26.8
2014-Dec-19 10:00S 19°24' W 165°31'0 0.0 26.8
2014-Dec-19 09:15S 19°24' W 165°31'117.6 26.8
2014-Dec-19 09:12S 19°24' W 165°30'1 0.8 26.8
2014-Dec-19 08:30S 19°24' W 165°30'0 9.9 26.8
2014-Dec-19 08:27S 19°24' W 165°30'1 1.0 26.8
2014-Dec-19 07:36S 19°23' W 165°30'1 0.7 26.8
2014-Dec-19 05:52S 19°23' W 165°29'1 1.3 26.8
2014-Dec-19 04:47S 19°22' W 165°27'0 0.4 26.8
2014-Dec-19 04:14S 19°22' W 165°27'0 0.0 26.8
2014-Dec-19 04:11S 19°22' W 165°27'0 1.2 26.8
2014-Dec-19 03:57S 19°22' W 165°27'1 1.4 26.8
2014-Dec-19 03:01S 19°22' W 165°26'2 2.3 26.9
2014-Dec-19 02:16S 19°21' W 165°24'126.2 26.9
2014-Dec-19 02:13S 19°22' W 165°26'1 0.8 26.9
2014-Dec-19 00:37S 19°21' W 165°24'0 4.9 26.9
2014-Dec-19 00:36S 19°21' W 165°24'1 0.5 26.9
2014-Dec-18 21:40S 19°21' W 165°23'1 0.8 26.8
2014-Dec-18 20:46S 19°21' W 165°22'0 7.7 26.8
2014-Dec-18 20:43S 19°21' W 165°22'0 0.0 26.8
2014-Dec-18 20:00S 19°21' W 165°22'1 0.9 26.8
2014-Dec-18 19:07S 19°21' W 165°21'0 5.3 26.8
2014-Dec-18 19:04S 19°22' W 165°21'0 0.5 26.8
2014-Dec-18 18:45S 19°22' W 165°21'1 0.6 26.8
2014-Dec-18 17:06S 19°22' W 165°20'1 0.6 26.8
2014-Dec-18 15:30S 19°22' W 165°19'0 0.0 26.8
2014-Dec-18 14:36S 19°22' W 165°19'1 1.0 26.8
2014-Dec-18 13:46S 19°21' W 165°19'0 1.5 26.8
2014-Dec-18 13:31S 19°21' W 165°18'0 0.0
2014-Dec-18 12:01S 19°21' W 165°18'0 0.2 26.8
2014-Dec-18 09:38S 19°21' W 165°18'0 2.8 26.8
2014-Dec-18 09:29S 19°21' W 165°18'0 0.0 26.8
2014-Dec-18 08:52S 19°21' W 165°18'1 8.5 26.8
2014-Dec-18 08:47S 19°21' W 165°17'0 0.0 26.8
2014-Dec-18 07:57S 19°21' W 165°17'1 0.3 26.8
2014-Dec-18 06:21S 19°20' W 165°17'1 1.8 26.8
2014-Dec-18 05:49S 19°19' W 165°16'0 0.0 26.8
2014-Dec-18 04:45S 19°19' W 165°16'0 0.0 26.9
2014-Dec-18 04:42S 19°19' W 165°16'0 0.8 26.9
2014-Dec-18 04:11S 19°19' W 165°16'1 0.8 26.9
2014-Dec-18 03:29S 19°19' W 165°16'1 2.3 26.9
2014-Dec-18 03:00S 19°18' W 165°15'0 0.5 26.9
2014-Dec-18 02:30S 19°18' W 165°15'0 0.0 26.9
2014-Dec-18 02:24S 19°18' W 165°15'1 0.4 26.9
2014-Dec-18 00:46S 19°18' W 165°14'3 1.0 26.9
2014-Dec-17 21:59S 19°16' W 165°12'1 1.7 26.8
2014-Dec-17 21:09S 19°17' W 165°11'1 8.4 26.7
2014-Dec-17 20:59S 19°16' W 165°12'0 0.1 26.7
2014-Dec-17 20:15S 19°16' W 165°12'2 2.6 26.7
2014-Dec-17 19:29S 19°16' W 165°10'0 0.0 26.7
2014-Dec-17 19:26S 19°16' W 165°10'0 0.0 26.7
2014-Dec-17 19:12S 19°16' W 165°10'1 0.4 26.7
2014-Dec-17 17:40S 19°16' W 165°10'0 0.0 26.7
2014-Dec-17 17:36S 19°16' W 165°10'2 0.9 26.7
2014-Dec-17 15:58S 19°16' W 165°08'0 0.8 26.7
2014-Dec-17 15:36S 19°16' W 165°08'1 5.5 26.7
2014-Dec-17 15:28S 19°15' W 165°08'0 0.0 26.7
2014-Dec-17 15:01S 19°15' W 165°08'1 0.7 26.7
2014-Dec-17 13:57S 19°15' W 165°07'0 0.0 26.7
2014-Dec-17 13:54S 19°15' W 165°07'1 0.7 26.7
2014-Dec-17 12:12S 19°15' W 165°06'211.3 26.7
2014-Dec-17 12:01S 19°14' W 165°04'1 0.3
2014-Dec-17 09:10S 19°15' W 165°03'111.6 26.7
2014-Dec-17 09:07S 19°15' W 165°02'0 0.0 26.7
2014-Dec-17 08:16S 19°15' W 165°02'1 0.7 26.7
2014-Dec-17 07:29S 19°15' W 165°02'1 0.6 26.7
2014-Dec-17 05:16S 19°15' W 165°00'0 1.9 26.7
2014-Dec-17 05:12S 19°15' W 165°00'1 0.7 26.7
2014-Dec-17 04:20S 19°15' W 164°60'0 0.2 26.7
2014-Dec-17 03:57S 19°15' W 164°60'0 1.0 26.7
2014-Dec-17 03:52S 19°15' W 164°60'0 1.0 26.7
2014-Dec-17 03:34S 19°15' W 164°60'0 0.6 26.7
2014-Dec-17 02:44S 19°15' W 164°59'0 2.7 26.7
2014-Dec-17 02:35S 19°15' W 164°59'1 0.3 26.7
2014-Dec-17 00:57S 19°15' W 164°59'1 0.3 26.7
2014-Dec-16 21:30S 19°14' W 164°58'1 1.1 26.7
2014-Dec-16 20:35S 19°14' W 164°57'0 0.0 26.8
2014-Dec-16 19:46S 19°14' W 164°57'1 1.2 26.7
2014-Dec-16 18:59S 19°14' W 164°56'0 0.0 26.7
2014-Dec-16 18:10S 19°14' W 164°56'15 0.8 26.7
2014-Dec-15 23:26S 19°10' W 164°41'1 0.3 27.0
2014-Dec-15 21:48S 19°10' W 164°42'1 0.8 26.9
2014-Dec-15 21:03S 19°10' W 164°41'1 0.7 26.9
2014-Dec-15 20:11S 19°09' W 164°41'0 0.0 26.9
2014-Dec-15 20:06S 19°09' W 164°41'1 0.7 26.9
2014-Dec-15 19:15S 19°09' W 164°41'0 0.0 26.9
2014-Dec-15 18:39S 19°09' W 164°41'0 0.0 26.9
2014-Dec-15 18:27S 19°09' W 164°41'0 0.0 26.9
2014-Dec-15 17:03S 19°09' W 164°41'0 0.0 26.9
2014-Dec-15 17:00S 19°09' W 164°41'1 0.9 26.9
2014-Dec-15 16:04S 19°08' W 164°40'1 4.3 26.9
2014-Dec-15 15:56S 19°08' W 164°41'0 0.0 26.9
2014-Dec-15 15:49S 19°08' W 164°41'2 1.2 26.9
2014-Dec-15 14:16S 19°08' W 164°39'1 0.6 26.9
2014-Dec-15 12:30S 19°08' W 164°38'218.0 26.9
2014-Dec-15 12:24S 19°07' W 164°36'0 0.0 26.9
2014-Dec-15 10:48S 19°07' W 164°36'0 0.0 26.9
2014-Dec-15 10:36S 19°07' W 164°36'0 0.0 26.9
2014-Dec-15 09:51S 19°07' W 164°36'1 4.9 26.9
2014-Dec-15 09:44S 19°07' W 164°35'0 0.0 26.9
2014-Dec-15 09:01S 19°07' W 164°35'0 0.0 26.9
2014-Dec-15 08:55S 19°07' W 164°35'1 0.8 26.9
2014-Dec-15 08:11S 19°07' W 164°35'1 1.4 26.9
2014-Dec-15 07:16S 19°07' W 164°34'1 0.6 26.9
2014-Dec-15 06:15S 19°07' W 164°33'2 1.2 27.0
2014-Dec-15 04:47S 19°07' W 164°31'1 4.3 27.0
2014-Dec-15 04:39S 19°07' W 164°32'0 0.0 27.0
2014-Dec-15 04:36S 19°07' W 164°32'3 2.0 27.0
2014-Dec-15 03:09S 19°06' W 164°29'1 8.5 27.0
2014-Dec-15 03:05S 19°06' W 164°29'0 0.0 27.0
2014-Dec-15 02:58S 19°06' W 164°29'1 0.3 27.0
2014-Dec-15 01:16S 19°06' W 164°29'2 1.4 27.0
2014-Dec-14 23:37S 19°05' W 164°26'0 0.0 27.0
2014-Dec-14 22:07S 19°05' W 164°26'0 0.0 27.0
2014-Dec-14 21:22S 19°05' W 164°26'1 8.5 26.9
2014-Dec-14 21:14S 19°05' W 164°25'0 0.0 26.9
2014-Dec-14 20:28S 19°05' W 164°25'1 1.1 26.9
2014-Dec-14 19:41S 19°05' W 164°25'2 4.1 26.9
2014-Dec-14 19:07S 19°04' W 164°22'0 0.0 26.9
2014-Dec-14 18:45S 19°04' W 164°22'0 0.0 26.9
2014-Dec-14 17:29S 19°04' W 164°22'1 0.9 26.9
2014-Dec-14 16:15S 19°04' W 164°21'0 0.0 26.9
2014-Dec-14 15:52S 19°04' W 164°21'1 0.8 26.9
2014-Dec-14 14:30S 19°04' W 164°20'2 1.0 26.9
2014-Dec-14 12:46S 19°04' W 164°18'0 0.0
2014-Dec-14 12:44S 19°04' W 164°18'1 5.5 27.0
2014-Dec-14 12:35S 19°05' W 164°17'0 0.0 27.0
2014-Dec-14 11:04S 19°05' W 164°17'1 1.4 27.0
2014-Dec-14 10:09S 19°04' W 164°17'0 0.0 27.0
2014-Dec-14 09:15S 19°04' W 164°17'0 0.0 27.0
2014-Dec-14 08:30S 19°04' W 164°17'1 1.0 27.1
2014-Dec-14 07:40S 19°03' W 164°16'2 0.8 27.1
2014-Dec-14 05:09S 19°02' W 164°14'0 0.0 27.2
2014-Dec-14 05:05S 19°02' W 164°14'1 0.8 27.2
2014-Dec-14 03:28S 19°01' W 164°14'1 2.8 27.2
2014-Dec-14 03:15S 19°01' W 164°14'0 0.0 27.2
2014-Dec-14 03:08S 19°01' W 164°14'2 1.4 27.2
2014-Dec-14 01:28S 19°00' W 164°12'1 0.6 27.2
2014-Dec-13 23:46S 19°00' W 164°11'   27.3

Dump ship's entire track history